Wetterstation Vordersexau
Wetterdaten: Woche 28.02.11 - 06.03.11 (KW9)
Datum Zeit Temp. A. Feuchte A. Luftdruck Regen Wind Richtung Taupunkt Windchill Windben
28.02.2011 00:00 1,9 C 88 % 1017,5 hPa 0,0 l/m 0,0 km/h O-NO 0,1 C 1,9 C 0,0 km/h
28.02.2011 01:00 1,3 C 88 % 1017,5 hPa 0,0 l/m 0,0 km/h SO -0,5 C 1,3 C 0,0 km/h
28.02.2011 02:00 1,3 C 87 % 1017,7 hPa 0,0 l/m 0,0 km/h SO -0,6 C 1,3 C 0,0 km/h
28.02.2011 03:00 1,8 C 87 % 1017,7 hPa 0,0 l/m 0,0 km/h SO -0,1 C 1,8 C 0,0 km/h
28.02.2011 04:00 1,9 C 87 % 1017,6 hPa 0,0 l/m 0,0 km/h S-SO -0,0 C 1,9 C 0,0 km/h
28.02.2011 05:00 0,9 C 87 % 1018,3 hPa 0,0 l/m 0,0 km/h S-SO -1,0 C 0,9 C 0,0 km/h
28.02.2011 06:00 -0,2 C 87 % 1018,4 hPa 0,0 l/m 0,0 km/h O -2,1 C -0,2 C 0,0 km/h
28.02.2011 07:00 -0,2 C 87 % 1018,6 hPa 0,0 l/m 0,0 km/h O-SO -2,1 C -0,2 C 0,0 km/h
28.02.2011 08:00 0,7 C 87 % 1019,0 hPa 0,0 l/m 0,0 km/h W -1,2 C 0,7 C 0,0 km/h
28.02.2011 09:00 1,8 C 86 % 1019,2 hPa 0,0 l/m 0,0 km/h W-SW -0,3 C 1,8 C 0,0 km/h
28.02.2011 10:00 3,5 C 87 % 1019,3 hPa 0,0 l/m 1,3 km/h W-NW 1,5 C 3,5 C 0,7 km/h
28.02.2011 11:00 5,4 C 89 % 1019,4 hPa 0,0 l/m 0,0 km/h N-NO 3,7 C 5,4 C 0,0 km/h
28.02.2011 12:00 11,2 C 75 % 1019,3 hPa 0,0 l/m 1,9 km/h N 6,9 C 11,2 C 1,1 km/h
28.02.2011 13:00 10,1 C 68 % 1019,0 hPa 0,0 l/m 0,0 km/h NO 4,5 C 10,1 C 0,0 km/h
28.02.2011 14:00 12,4 C 64 % 1018,6 hPa 0,0 l/m 0,0 km/h O-NO 5,8 C 12,4 C 0,0 km/h
28.02.2011 15:00 8,3 C 70 % 1019,0 hPa 0,0 l/m 0,0 km/h NO 3,2 C 8,3 C 0,0 km/h
28.02.2011 16:00 7,6 C 74 % 1019,0 hPa 0,0 l/m 0,0 km/h NO 3,3 C 7,6 C 0,0 km/h
28.02.2011 17:00 7,3 C 74 % 1019,1 hPa 0,0 l/m 0,0 km/h N-NO 3,0 C 7,3 C 0,0 km/h
28.02.2011 18:00 6,9 C 76 % 1019,5 hPa 0,0 l/m 1,3 km/h O-SO 3,0 C 6,9 C 0,7 km/h
28.02.2011 19:00 6,3 C 78 % 1020,1 hPa 0,0 l/m 0,0 km/h NO 2,8 C 6,3 C 0,0 km/h
28.02.2011 20:00 5,9 C 80 % 1020,6 hPa 0,0 l/m 0,0 km/h NO 2,7 C 5,9 C 0,0 km/h
28.02.2011 21:00 5,8 C 80 % 1020,9 hPa 0,0 l/m 0,0 km/h N-NO 2,6 C 5,8 C 0,0 km/h
28.02.2011 22:00 5,8 C 81 % 1021,4 hPa 0,0 l/m 0,0 km/h NO 2,8 C 5,8 C 0,0 km/h
28.02.2011 23:00 5,6 C 82 % 1021,7 hPa 0,0 l/m 64,2 km/h NO 2,8 C -10,3 C 35,6 km/h
01.03.2011 00:00 5,7 C 83 % 1021,7 hPa 0,0 l/m 64,2 km/h N-NO 3,0 C -10,2 C 35,6 km/h
01.03.2011 01:00 6,1 C 81 % 1021,9 hPa 0,0 l/m 0,0 km/h N-NO 3,1 C 6,1 C 0,0 km/h
01.03.2011 02:00 5,5 C 81 % 1022,0 hPa 0,0 l/m 0,0 km/h N-NO 2,5 C 5,5 C 0,0 km/h
01.03.2011 03:00 3,8 C 84 % 1022,0 hPa 0,0 l/m 0,0 km/h SO 1,4 C 3,8 C 0,0 km/h
01.03.2011 04:00 1,0 C 87 % 1022,1 hPa 0,0 l/m 0,0 km/h SO -0,9 C 1,0 C 0,0 km/h
01.03.2011 05:00 -0,3 C 88 % 1022,3 hPa 0,0 l/m 0,0 km/h O-SO -2,0 C -0,3 C 0,0 km/h
01.03.2011 06:00 -0,9 C 89 % 1022,5 hPa 0,0 l/m 0,0 km/h SO -2,5 C -0,9 C 0,0 km/h
01.03.2011 07:00 -1,1 C 89 % 1023,1 hPa 0,0 l/m 0,0 km/h SO -2,7 C -1,1 C 0,0 km/h
01.03.2011 08:00 1,0 C 88 % 1023,4 hPa 0,0 l/m 0,0 km/h S-SW -0,8 C 1,0 C 0,0 km/h
01.03.2011 09:00 6,1 C 87 % 1023,3 hPa 0,0 l/m 0,0 km/h S-SW 4,1 C 6,1 C 0,0 km/h
01.03.2011 10:00 11,9 C 64 % 1023,3 hPa 0,0 l/m 0,0 km/h N-NO 5,3 C 11,9 C 0,0 km/h
01.03.2011 11:00 13,3 C 51 % 1023,0 hPa 0,0 l/m 4,5 km/h O-SO 3,4 C 13,3 C 2,5 km/h
01.03.2011 12:00 14,9 C 52 % 1022,7 hPa 0,0 l/m 8,4 km/h O-SO 5,1 C 13,8 C 4,7 km/h
01.03.2011 13:00 13,9 C 50 % 1021,7 hPa 0,0 l/m 23,3 km/h O 3,7 C 7,5 C 13,0 km/h
01.03.2011 14:00 15,6 C 47 % 1021,4 hPa 0,0 l/m 0,0 km/h O 4,3 C 15,6 C 0,0 km/h
01.03.2011 15:00 16,0 C 44 % 1021,4 hPa 0,0 l/m 13,6 km/h N-NO 3,8 C 12,9 C 7,6 km/h
01.03.2011 16:00 16,2 C 44 % 1021,4 hPa 0,0 l/m 1,9 km/h O-NO 3,9 C 16,2 C 1,1 km/h
01.03.2011 17:00 13,5 C 47 % 1021,7 hPa 0,0 l/m 0,0 km/h N-NO 2,4 C 13,5 C 0,0 km/h
01.03.2011 18:00 8,2 C 59 % 1022,3 hPa 0,0 l/m 0,0 km/h NO 0,7 C 8,2 C 0,0 km/h
01.03.2011 19:00 5,9 C 66 % 1022,7 hPa 0,0 l/m 0,0 km/h O-SO 0,0 C 5,9 C 0,0 km/h
01.03.2011 20:00 4,9 C 70 % 1023,0 hPa 0,0 l/m 0,0 km/h N-NO -0,1 C 4,9 C 0,0 km/h
01.03.2011 21:00 6,2 C 67 % 1022,6 hPa 0,0 l/m 0,0 km/h SO 0,5 C 6,2 C 0,0 km/h
01.03.2011 22:00 5,3 C 64 % 1022,9 hPa 0,0 l/m 0,0 km/h SO -0,9 C 5,3 C 0,0 km/h
01.03.2011 23:00 3,0 C 68 % 1023,0 hPa 0,0 l/m 2,6 km/h N-NO -2,3 C 3,0 C 1,4 km/h
02.03.2011 00:00 1,7 C 69 % 1023,2 hPa 0,0 l/m 0,0 km/h N-NO -3,4 C 1,7 C 0,0 km/h
02.03.2011 01:00 1,6 C 70 % 1022,7 hPa 0,0 l/m 1,3 km/h NO -3,3 C 1,6 C 0,7 km/h
02.03.2011 02:00 0,5 C 72 % 1022,1 hPa 0,0 l/m 0,0 km/h N-NO -3,9 C 0,5 C 0,0 km/h
02.03.2011 03:00 0,4 C 74 % 1021,8 hPa 0,0 l/m 1,3 km/h N-NW -3,7 C 0,4 C 0,7 km/h
02.03.2011 04:00 1,1 C 71 % 1021,4 hPa 0,0 l/m 0,0 km/h O-SO -3,6 C 1,1 C 0,0 km/h
02.03.2011 05:00 0,9 C 69 % 1021,3 hPa 0,0 l/m 0,0 km/h N-NO -4,1 C 0,9 C 0,0 km/h
02.03.2011 06:00 1,1 C 66 % 1021,2 hPa 0,0 l/m 0,0 km/h NW -4,5 C 1,1 C 0,0 km/h
02.03.2011 07:00 0,5 C 66 % 1021,0 hPa 0,0 l/m 0,0 km/h N-NO -5,1 C 0,5 C 0,0 km/h
02.03.2011 08:00 4,1 C 56 % 1021,0 hPa 0,0 l/m 1,9 km/h N-NO -3,9 C 4,1 C 1,1 km/h
02.03.2011 09:00 8,5 C 45 % 1020,2 hPa 0,0 l/m 1,9 km/h W -2,7 C 8,5 C 1,1 km/h
02.03.2011 10:00 11,9 C 40 % 1020,0 hPa 0,0 l/m 2,6 km/h O-NO -1,3 C 11,9 C 1,4 km/h
02.03.2011 11:00 12,9 C 32 % 1019,7 hPa 0,0 l/m 0,0 km/h N-NO -3,4 C 12,9 C 0,0 km/h
02.03.2011 12:00 13,5 C 32 % 1018,6 hPa 0,0 l/m 2,6 km/h W -2,9 C 13,5 C 1,4 km/h
02.03.2011 13:00 13,5 C 33 % 1018,1 hPa 0,0 l/m 1,9 km/h SO -2,4 C 13,5 C 1,1 km/h
02.03.2011 14:00 15,3 C 29 % 1018,0 hPa 0,0 l/m 13,6 km/h O-SO -2,6 C 12,0 C 7,6 km/h
02.03.2011 15:00 16,8 C 23 % 1018,3 hPa 0,0 l/m 1,3 km/h O -4,4 C 16,8 C 0,7 km/h
02.03.2011 16:00 14,1 C 21 % 1018,7 hPa 0,0 l/m 13,6 km/h O-NO -7,9 C 10,6 C 7,6 km/h
02.03.2011 17:00 11,6 C 26 % 1019,2 hPa 0,0 l/m 6,5 km/h NO -7,2 C 11,6 C 3,6 km/h
02.03.2011 18:00 6,8 C 34 % 1020,2 hPa 0,0 l/m 7,1 km/h NO -7,9 C 6,2 C 4,0 km/h
02.03.2011 19:00 5,6 C 41 % 1020,9 hPa 0,0 l/m 18,8 km/h NO -6,6 C -1,9 C 10,4 km/h
02.03.2011 20:00 4,4 C 46 % 1021,1 hPa 0,0 l/m 5,8 km/h O -6,2 C 4,4 C 3,2 km/h
02.03.2011 21:00 3,4 C 50 % 1021,5 hPa 0,0 l/m 0,0 km/h O-SO -6,0 C 3,4 C 0,0 km/h
02.03.2011 22:00 2,8 C 53 % 1021,0 hPa 0,0 l/m 0,0 km/h O -5,8 C 2,8 C 0,0 km/h
02.03.2011 23:00 1,3 C 57 % 1021,1 hPa 0,0 l/m 0,0 km/h N-NO -6,3 C 1,3 C 0,0 km/h
03.03.2011 00:00 0,2 C 62 % 1021,5 hPa 0,0 l/m 0,0 km/h N-NO -6,2 C 0,2 C 0,0 km/h
03.03.2011 01:00 -1,1 C 69 % 1021,8 hPa 0,0 l/m 0,0 km/h NO -6,0 C -1,1 C 0,0 km/h
03.03.2011 02:00 -0,8 C 69 % 1021,7 hPa 0,0 l/m 0,0 km/h NO -5,8 C -0,8 C 0,0 km/h
03.03.2011 03:00 -1,1 C 69 % 1021,4 hPa 0,0 l/m 0,0 km/h O-NO -6,0 C -1,1 C 0,0 km/h
03.03.2011 04:00 -0,9 C 69 % 1021,4 hPa 0,0 l/m 0,0 km/h O-SO -5,9 C -0,9 C 0,0 km/h
03.03.2011 05:00 -1,1 C 68 % 1021,6 hPa 0,0 l/m 0,0 km/h O-SO -6,2 C -1,1 C 0,0 km/h
03.03.2011 06:00 -3,1 C 75 % 1021,8 hPa 0,0 l/m 0,0 km/h O-NO -6,9 C -3,1 C 0,0 km/h
03.03.2011 07:00 -3,8 C 79 % 1022,1 hPa 0,0 l/m 0,0 km/h O -6,9 C -3,8 C 0,0 km/h
03.03.2011 08:00 -0,1 C 77 % 1022,7 hPa 0,0 l/m 0,0 km/h N-NW -3,6 C -0,1 C 0,0 km/h
03.03.2011 09:00 6,2 C 60 % 1023,3 hPa 0,0 l/m 2,6 km/h O-NO -1,0 C 6,2 C 1,4 km/h
03.03.2011 10:00 9,5 C 46 % 1023,0 hPa 0,0 l/m 0,0 km/h N -1,5 C 9,5 C 0,0 km/h
03.03.2011 11:00 10,7 C 42 % 1022,7 hPa 0,0 l/m 0,0 km/h W-NW -1,7 C 10,7 C 0,0 km/h
03.03.2011 12:00 10,4 C 43 % 1022,4 hPa 0,0 l/m 0,0 km/h N-NO -1,6 C 10,4 C 0,0 km/h
03.03.2011 13:00 10,5 C 41 % 1022,0 hPa 0,0 l/m 2,6 km/h O-NO -2,2 C 10,5 C 1,4 km/h
03.03.2011 14:00 12,4 C 37 % 1021,7 hPa 0,0 l/m 1,3 km/h NO -1,9 C 12,4 C 0,7 km/h
03.03.2011 15:00 14,2 C 35 % 1021,3 hPa 0,0 l/m 0,0 km/h N -1,0 C 14,2 C 0,0 km/h
03.03.2011 16:00 13,3 C 36 % 1021,2 hPa 0,0 l/m 12,3 km/h O-SO -1,4 C 10,2 C 6,8 km/h
03.03.2011 17:00 10,9 C 40 % 1021,6 hPa 0,0 l/m 5,8 km/h O -2,2 C 10,9 C 3,2 km/h
03.03.2011 18:00 4,4 C 55 % 1022,1 hPa 0,0 l/m 0,0 km/h O-NO -3,8 C 4,4 C 0,0 km/h
03.03.2011 19:00 2,1 C 63 % 1022,8 hPa 0,0 l/m 0,0 km/h O-SO -4,2 C 2,1 C 0,0 km/h
03.03.2011 20:00 1,2 C 67 % 1023,3 hPa 0,0 l/m 0,0 km/h O-NO -4,2 C 1,2 C 0,0 km/h
03.03.2011 21:00 -0,1 C 73 % 1023,7 hPa 0,0 l/m 0,0 km/h O-SO -4,3 C -0,1 C 0,0 km/h
03.03.2011 22:00 -0,6 C 77 % 1023,6 hPa 0,0 l/m 0,0 km/h N-NO -4,1 C -0,6 C 0,0 km/h
03.03.2011 23:00 -1,9 C 79 % 1023,7 hPa 0,0 l/m 0,0 km/h NO -5,0 C -1,9 C 0,0 km/h
04.03.2011 00:00 -2,1 C 82 % 1024,1 hPa 0,0 l/m 0,0 km/h NO -4,7 C -2,1 C 0,0 km/h
04.03.2011 01:00 -2,2 C 83 % 1024,2 hPa 0,0 l/m 0,0 km/h SO -4,7 C -2,2 C 0,0 km/h
04.03.2011 02:00 -1,2 C 82 % 1024,7 hPa 0,0 l/m 0,0 km/h SO -3,9 C -1,2 C 0,0 km/h
04.03.2011 03:00 -0,9 C 81 % 1024,5 hPa 0,0 l/m 0,0 km/h W-NW -3,7 C -0,9 C 0,0 km/h
04.03.2011 04:00 -2,9 C 83 % 1025,0 hPa 0,0 l/m 0,0 km/h W-NW -5,4 C -2,9 C 0,0 km/h
04.03.2011 05:00 -3,9 C 85 % 1025,3 hPa 0,0 l/m 0,0 km/h S -6,0 C -3,9 C 0,0 km/h
04.03.2011 06:00 -4,5 C 86 % 1025,6 hPa 0,0 l/m 0,0 km/h S -6,5 C -4,5 C 0,0 km/h
04.03.2011 07:00 -4,2 C 87 % 1026,0 hPa 0,0 l/m 0,0 km/h S -6,0 C -4,2 C 0,0 km/h
04.03.2011 08:00 -0,9 C 88 % 1026,0 hPa 0,0 l/m 0,0 km/h W-NW -2,6 C -0,9 C 0,0 km/h
04.03.2011 09:00 3,6 C 76 % 1026,4 hPa 0,0 l/m 0,0 km/h W -0,2 C 3,6 C 0,0 km/h
04.03.2011 10:00 7,6 C 62 % 1026,2 hPa 0,0 l/m 0,0 km/h W 0,8 C 7,6 C 0,0 km/h
04.03.2011 11:00 9,5 C 56 % 1025,9 hPa 0,0 l/m 1,9 km/h N-NW 1,2 C 9,5 C 1,1 km/h
04.03.2011 12:00 9,9 C 55 % 1025,2 hPa 0,0 l/m 0,0 km/h N-NW 1,3 C 9,9 C 0,0 km/h
04.03.2011 13:00 10,4 C 54 % 1024,5 hPa 0,0 l/m 0,0 km/h N-NW 1,5 C 10,4 C 0,0 km/h
04.03.2011 14:00 11,8 C 51 % 1024,0 hPa 0,0 l/m 13,6 km/h W 2,0 C 7,9 C 7,6 km/h
04.03.2011 15:00 13,9 C 47 % 1023,2 hPa 0,0 l/m 2,6 km/h N-NW 2,8 C 13,9 C 1,4 km/h
04.03.2011 16:00 13,6 C 48 % 1022,7 hPa 0,0 l/m 2,6 km/h W-NW 2,8 C 13,6 C 1,4 km/h
04.03.2011 17:00 11,0 C 54 % 1022,8 hPa 0,0 l/m 0,0 km/h SO 2,1 C 11,0 C 0,0 km/h
04.03.2011 18:00 4,1 C 72 % 1023,0 hPa 0,0 l/m 0,0 km/h O-SO -0,5 C 4,1 C 0,0 km/h
04.03.2011 19:00 2,2 C 79 % 1023,0 hPa 0,0 l/m 0,0 km/h O-SO -1,1 C 2,2 C 0,0 km/h
04.03.2011 20:00 1,0 C 83 % 1023,0 hPa 0,0 l/m 0,0 km/h O-NO -1,6 C 1,0 C 0,0 km/h
04.03.2011 21:00 0,1 C 85 % 1023,1 hPa 0,0 l/m 0,0 km/h O-SO -2,1 C 0,1 C 0,0 km/h
04.03.2011 22:00 -0,9 C 86 % 1023,6 hPa 0,0 l/m 0,0 km/h O -2,9 C -0,9 C 0,0 km/h
04.03.2011 23:00 -1,5 C 87 % 1023,3 hPa 0,0 l/m 0,0 km/h SO -3,4 C -1,5 C 0,0 km/h
05.03.2011 00:00 -1,6 C 88 % 1022,9 hPa 0,0 l/m 0,6 km/h O -3,3 C -1,6 C 0,4 km/h
05.03.2011 01:00 -2,2 C 88 % 1023,0 hPa 0,0 l/m 0,0 km/h O-SO -3,9 C -2,2 C 0,0 km/h
05.03.2011 02:00 -2,4 C 88 % 1022,6 hPa 0,0 l/m 0,0 km/h O-SO -4,1 C -2,4 C 0,0 km/h
05.03.2011 03:00 -2,7 C 88 % 1022,4 hPa 0,0 l/m 0,0 km/h O-NO -4,4 C -2,7 C 0,0 km/h
05.03.2011 04:00 -1,9 C 88 % 1021,9 hPa 0,0 l/m 0,0 km/h NO -3,6 C -1,9 C 0,0 km/h
05.03.2011 05:00 -3,2 C 88 % 1022,1 hPa 0,0 l/m 0,0 km/h O-NO -4,9 C -3,2 C 0,0 km/h
05.03.2011 06:00 -3,7 C 89 % 1021,9 hPa 0,0 l/m 0,0 km/h O-SO -5,2 C -3,7 C 0,0 km/h
05.03.2011 07:00 -3,2 C 89 % 1022,1 hPa 0,0 l/m 0,0 km/h SO -4,7 C -3,2 C 0,0 km/h
05.03.2011 08:00 -0,3 C 88 % 1022,1 hPa 0,0 l/m 1,3 km/h O-NO -2,0 C -0,3 C 0,7 km/h
05.03.2011 09:00 4,8 C 86 % 1021,8 hPa 0,0 l/m 0,0 km/h W 2,7 C 4,8 C 0,0 km/h
05.03.2011 10:00 9,1 C 66 % 1021,6 hPa 0,0 l/m 7,8 km/h W-NW 3,1 C 8,1 C 4,3 km/h
05.03.2011 11:00 11,6 C 59 % 1021,1 hPa 0,0 l/m 5,2 km/h W-NW 3,9 C 11,6 C 2,9 km/h
05.03.2011 12:00 11,3 C 56 % 1020,6 hPa 0,0 l/m 1,3 km/h SW 2,8 C 11,3 C 0,7 km/h
05.03.2011 13:00 11,8 C 58 % 1019,8 hPa 0,0 l/m 8,4 km/h W 3,8 C 10,5 C 4,7 km/h
05.03.2011 14:00 13,9 C 52 % 1019,1 hPa 0,0 l/m 5,2 km/h N-NO 4,2 C 13,9 C 2,9 km/h
05.03.2011 15:00 16,6 C 44 % 1018,3 hPa 0,0 l/m 0,0 km/h W-NW 4,3 C 16,6 C 0,0 km/h
05.03.2011 16:00 16,5 C 43 % 1018,2 hPa 0,0 l/m 5,2 km/h N 3,9 C 16,5 C 2,9 km/h
05.03.2011 17:00 13,5 C 48 % 1018,5 hPa 0,0 l/m 0,0 km/h N-NO 2,7 C 13,5 C 0,0 km/h
05.03.2011 18:00 7,8 C 61 % 1019,0 hPa 0,0 l/m 0,0 km/h NO 0,8 C 7,8 C 0,0 km/h
05.03.2011 19:00 3,6 C 75 % 1019,3 hPa 0,0 l/m 0,0 km/h N-NO -0,4 C 3,6 C 0,0 km/h
05.03.2011 20:00 2,6 C 79 % 1019,8 hPa 0,0 l/m 0,0 km/h S -0,7 C 2,6 C 0,0 km/h
05.03.2011 21:00 1,3 C 83 % 1020,3 hPa 0,0 l/m 0,0 km/h O -1,3 C 1,3 C 0,0 km/h
05.03.2011 22:00 0,7 C 83 % 1020,4 hPa 0,0 l/m 0,0 km/h NO -1,8 C 0,7 C 0,0 km/h
05.03.2011 23:00 -0,6 C 86 % 1020,7 hPa 0,0 l/m 0,0 km/h NO -2,6 C -0,6 C 0,0 km/h
06.03.2011 00:00 -0,1 C 87 % 1020,6 hPa 0,0 l/m 0,0 km/h N-NO -2,0 C -0,1 C 0,0 km/h
06.03.2011 01:00 -1,7 C 87 % 1020,7 hPa 0,0 l/m 0,0 km/h O -3,6 C -1,7 C 0,0 km/h
06.03.2011 02:00 -2,9 C 87 % 1020,6 hPa 0,0 l/m 0,0 km/h O-SO -4,8 C -2,9 C 0,0 km/h
06.03.2011 03:00 -2,9 C 88 % 1020,6 hPa 0,0 l/m 0,0 km/h O-SO -4,6 C -2,9 C 0,0 km/h
06.03.2011 04:00 -2,8 C 88 % 1020,9 hPa 0,0 l/m 0,0 km/h O-NO -4,5 C -2,8 C 0,0 km/h
06.03.2011 05:00 -3,5 C 88 % 1021,0 hPa 0,0 l/m 0,0 km/h S -5,2 C -3,5 C 0,0 km/h
06.03.2011 06:00 -2,2 C 88 % 1021,4 hPa 0,0 l/m 0,0 km/h S -3,9 C -2,2 C 0,0 km/h
06.03.2011 07:00 -1,6 C 88 % 1022,0 hPa 0,0 l/m 0,0 km/h W -3,3 C -1,6 C 0,0 km/h
06.03.2011 08:00 -1,1 C 88 % 1022,6 hPa 0,0 l/m 0,0 km/h S-SW -2,8 C -1,1 C 0,0 km/h
06.03.2011 09:00 -0,6 C 88 % 1023,1 hPa 0,0 l/m 0,0 km/h S-SO -2,3 C -0,6 C 0,0 km/h
06.03.2011 10:00 1,8 C 86 % 1023,3 hPa 0,0 l/m 1,9 km/h S -0,3 C 1,8 C 1,1 km/h
06.03.2011 11:00 3,8 C 80 % 1023,3 hPa 0,0 l/m 5,2 km/h S-SW 0,7 C 3,8 C 2,9 km/h
06.03.2011 12:00 6,8 C 73 % 1023,2 hPa 0,0 l/m 10,4 km/h S 2,3 C 3,8 C 5,8 km/h
06.03.2011 13:00 8,1 C 66 % 1022,5 hPa 0,0 l/m 7,1 km/h N-NO 2,1 C 7,6 C 4,0 km/h
06.03.2011 14:00 9,8 C 56 % 1022,2 hPa 0,0 l/m 0,0 km/h O 1,4 C 9,8 C 0,0 km/h
06.03.2011 15:00 13,3 C 45 % 1022,2 hPa 0,0 l/m 1,9 km/h O 1,6 C 13,3 C 1,1 km/h
06.03.2011 16:00 12,2 C 42 % 1022,5 hPa 0,0 l/m 0,0 km/h NO -0,3 C 12,2 C 0,0 km/h
06.03.2011 17:00 9,2 C 45 % 1022,7 hPa 0,0 l/m 7,1 km/h O-SO -2,1 C 8,7 C 4,0 km/h
06.03.2011 18:00 1,9 C 62 % 1023,3 hPa 0,0 l/m 0,0 km/h N-NW -4,6 C 1,9 C 0,0 km/h
06.03.2011 19:00 0,9 C 66 % 1024,1 hPa 0,0 l/m 9,7 km/h NO -4,7 C -2,2 C 5,4 km/h
06.03.2011 20:00 0,1 C 68 % 1024,9 hPa 0,0 l/m 0,0 km/h O -5,1 C 0,1 C 0,0 km/h
06.03.2011 21:00 -2,4 C 76 % 1025,3 hPa 0,0 l/m 0,0 km/h O -6,0 C -2,4 C 0,0 km/h
06.03.2011 22:00 -2,7 C 80 % 1025,5 hPa 0,0 l/m 0,0 km/h SO -5,7 C -2,7 C 0,0 km/h
06.03.2011 23:00 -2,6 C 82 % 1025,6 hPa 0,0 l/m 0,0 km/h O-SO -5,2 C -2,6 C 0,0 km/h
Min-Datum _ 04.03.11 02.03.11 28.02.11 - 28.02.11 - 02.03.11 28.02.11 28.02.11
_ Min-Zeit 06:30 16:30 00:30 - 00:30 - 18:30 23:30 00:30
Minimum _ -4,5 C 21 % 1017,5 hPa - 0,0 km/h - -7,9 C -10,3 C 0,0 km/h
Max-Datum _ 02.03.11 28.02.11 04.03.11 28.02.11 28.02.11 - 28.02.11 02.03.11 28.02.11
_ Max-Zeit 15:30 11:30 09:30 00:30 23:30 - 12:30 15:30 23:30
Maximum _ 16,8 C 89 % 1026,4 hPa 0,0 l/m 64,2 km/h
NO
- 6,9 C 16,8 C 35,6 km/h
NO
Durchschnitt _ 4,5 C 69 % 1021,7 hPa #0,0 l/m 2,3 km/h N-NO -1,4 C 4,0 C 1,3 km/h
www.sexauwetter.de